Haypoint, Minnesota
Current Conditions -  °F | °C
As of 8:55 PM on Friday 21 Nov 2014 (Local Time) from KGPZ Reporting Station
Clear Clear  
Wind Chill: 16°   Ceiling: Unl
Heat Index: 28°   Visibility: 10mi
Dew Point: 21°   Wind: 18mph
Humidity: 74%   Direction: 200°SSW
Pressure: 29.69"   Gusts: 31mph
Location:  47.0392°N, 93.6273°W
Report Text: KGPZ 220255Z AUTO 20016G27KT 10SM CLR M02/M06 A2969 RMK AO1 57027
Loading
Personal Weather Stations






























Interactive Weather Map New forecast layout! Learn more

10-Day Weather Forecast

Advertisements
Track Severe Weather on mobile